Time;durP1;ratioP1;P1;durP2;ratioP2;P2;SDS_P1;SDS_P2;PMS_P1;PMS_P2;Temp;Humidity;BMP_temperature;BMP_pressure;BME280_temperature;BME280_humidity;BME280_pressure;Samples;Min_cycle;Max_cycle;Signal;HPM_P1;HPM_P2
2021/04/20 00:00:34;;;;;;;19.40;15.43;;;8.90;99.90;;;;;;5013502;28;20184;-70
2021/04/20 00:03:00;;;;;;;23.43;15.87;;;8.90;99.90;;;;;;5010806;28;20188;-72
2021/04/20 00:05:25;;;;;;;20.50;14.37;;;8.90;99.90;;;;;;5011878;28;20205;-72
2021/04/20 00:07:51;;;;;;;20.20;14.63;;;8.80;99.90;;;;;;5009929;28;21000;-71
2021/04/20 00:10:19;;;;;;;24.23;15.83;;;8.80;99.90;;;;;;5015126;28;20184;-71
2021/04/20 00:12:47;;;;;;;19.90;14.80;;;8.80;99.90;;;;;;5012759;28;20189;-71
2021/04/20 00:15:19;;;;;;;19.93;14.90;;;8.80;99.90;;;;;;5009033;28;20509;-70
2021/04/20 00:17:48;;;;;;;23.57;15.77;;;8.70;99.90;;;;;;5008677;28;21184;-71
2021/04/20 00:20:15;;;;;;;23.30;16.13;;;8.70;99.90;;;;;;5009806;28;20527;-70
2021/04/20 00:22:41;;;;;;;23.73;16.60;;;8.70;99.90;;;;;;5012043;28;20924;-71
2021/04/20 00:25:07;;;;;;;25.07;14.50;;;8.70;99.90;;;;;;5014469;28;20533;-70
2021/04/20 00:27:33;;;;;;;22.80;16.10;;;8.70;99.90;;;;;;5009534;28;20232;-70
2021/04/20 00:29:58;;;;;;;21.77;15.70;;;8.70;99.90;;;;;;5015600;28;20514;-71
2021/04/20 00:32:24;;;;;;;26.77;16.60;;;8.70;99.90;;;;;;5015714;28;20203;-71
2021/04/20 00:34:50;;;;;;;23.30;15.33;;;8.70;99.90;;;;;;5015929;28;20665;-72
2021/04/20 00:37:15;;;;;;;21.30;14.57;;;8.70;99.90;;;;;;5011208;28;20228;-70
2021/04/20 00:39:41;;;;;;;21.53;14.93;;;8.60;99.90;;;;;;5017027;28;20567;-70
2021/04/20 00:42:08;;;;;;;22.40;15.77;;;8.60;99.90;;;;;;5013749;28;20197;-69
2021/04/20 00:44:34;;;;;;;21.97;15.63;;;8.60;99.90;;;;;;5012393;28;20222;-70
2021/04/20 00:47:01;;;;;;;20.23;15.17;;;8.60;99.90;;;;;;5015883;28;20451;-70
2021/04/20 00:49:27;;;;;;;23.73;16.30;;;8.50;99.90;;;;;;5013810;28;20604;-70
2021/04/20 00:51:54;;;;;;;21.53;14.93;;;8.50;99.90;;;;;;5016461;28;20551;-71
2021/04/20 00:54:20;;;;;;;27.13;16.80;;;8.50;99.90;;;;;;5014074;28;20201;-70
2021/04/20 00:56:46;;;;;;;23.50;15.20;;;8.60;99.90;;;;;;5016495;28;20497;-71
2021/04/20 00:59:12;;;;;;;19.63;15.20;;;8.60;99.90;;;;;;5012370;28;20604;-70
2021/04/20 01:01:38;;;;;;;23.23;15.70;;;8.50;99.90;;;;;;5009184;28;20462;-72
2021/04/20 01:04:04;;;;;;;22.87;15.67;;;8.40;99.90;;;;;;5015361;28;21072;-71
2021/04/20 01:06:30;;;;;;;20.43;14.40;;;8.40;99.90;;;;;;5016494;28;20451;-70
2021/04/20 01:08:57;;;;;;;23.47;15.57;;;8.40;99.90;;;;;;5013435;28;20446;-71
2021/04/20 01:11:23;;;;;;;19.03;16.00;;;8.40;99.90;;;;;;5013872;28;20452;-71
2021/04/20 01:13:49;;;;;;;17.77;14.47;;;8.40;99.90;;;;;;5013990;28;20949;-71
2021/04/20 01:16:18;;;;;;;18.23;14.17;;;8.40;99.90;;;;;;5014230;28;20458;-71
2021/04/20 01:18:44;;;;;;;26.80;16.07;;;8.40;99.90;;;;;;5014776;28;20908;-70
2021/04/20 01:21:12;;;;;;;17.33;14.13;;;8.40;99.90;;;;;;5014867;28;20472;-70
2021/04/20 01:23:46;;;;;;;20.90;15.60;;;8.40;99.90;;;;;;5019117;28;20193;-71
2021/04/20 01:26:13;;;;;;;20.87;15.10;;;8.40;99.90;;;;;;5016970;28;20451;-70
2021/04/20 01:28:39;;;;;;;20.93;15.70;;;8.40;99.90;;;;;;5018361;28;20521;-70
2021/04/20 01:31:05;;;;;;;19.90;14.50;;;8.40;99.90;;;;;;5019405;28;20459;-71
2021/04/20 01:33:31;;;;;;;20.70;15.50;;;8.40;99.90;;;;;;5015020;28;20431;-71
2021/04/20 01:35:57;;;;;;;21.87;15.07;;;8.30;99.90;;;;;;5016539;28;20464;-69
2021/04/20 01:38:23;;;;;;;22.30;15.90;;;8.30;99.90;;;;;;5017840;28;21207;-72
2021/04/20 01:40:49;;;;;;;19.30;14.33;;;8.30;99.90;;;;;;5017333;28;20423;-70
2021/04/20 01:43:15;;;;;;;21.67;14.90;;;8.20;99.90;;;;;;5018078;28;20180;-72
2021/04/20 01:45:42;;;;;;;23.40;15.50;;;8.20;99.90;;;;;;5009188;28;20897;-71
2021/04/20 01:48:09;;;;;;;23.50;14.93;;;8.20;99.90;;;;;;5016554;28;20275;-71
2021/04/20 01:50:39;;;;;;;21.30;14.30;;;8.20;99.90;;;;;;5016460;28;20520;-70
2021/04/20 01:53:05;;;;;;;21.20;15.20;;;8.10;99.90;;;;;;5009458;28;20488;-70
2021/04/20 01:55:30;;;;;;;26.50;15.10;;;8.00;99.90;;;;;;5018926;28;20806;-71
2021/04/20 01:57:56;;;;;;;27.90;17.10;;;7.90;99.90;;;;;;5020222;28;20188;-70
2021/04/20 02:00:23;;;;;;;22.13;16.30;;;7.90;99.90;;;;;;5013707;28;20711;-70
2021/04/20 02:02:49;;;;;;;21.50;15.80;;;7.80;99.90;;;;;;5011857;28;20490;-70
2021/04/20 02:05:15;;;;;;;21.83;13.53;;;7.80;99.90;;;;;;5016006;28;20495;-70
2021/04/20 02:07:43;;;;;;;20.00;14.90;;;7.70;99.90;;;;;;5012552;28;20208;-71
2021/04/20 02:10:10;;;;;;;22.27;16.00;;;7.70;99.90;;;;;;5013547;28;20451;-71
2021/04/20 02:12:37;;;;;;;28.40;15.70;;;7.70;99.90;;;;;;5014124;28;20476;-70
2021/04/20 02:15:06;;;;;;;21.90;14.50;;;7.70;99.90;;;;;;5016756;28;20472;-71
2021/04/20 02:17:33;;;;;;;22.10;14.93;;;7.70;99.90;;;;;;5012571;28;20494;-70
2021/04/20 02:20:11;;;;;;;24.33;17.00;;;7.60;99.90;;;;;;5012402;28;20444;-71
2021/04/20 02:22:39;;;;;;;24.47;15.90;;;7.60;99.90;;;;;;5020446;28;21174;-69
2021/04/20 02:25:10;;;;;;;23.40;15.27;;;7.60;99.90;;;;;;5015953;28;20530;-71
2021/04/20 02:27:36;;;;;;;21.87;15.53;;;7.60;99.90;;;;;;5013586;28;21032;-71
2021/04/20 02:30:07;;;;;;;22.70;15.80;;;7.60;99.90;;;;;;5018007;28;20466;-70
2021/04/20 02:32:38;;;;;;;21.50;14.40;;;7.60;99.90;;;;;;5014194;28;20460;-70
2021/04/20 02:35:07;;;;;;;19.40;13.70;;;7.60;99.90;;;;;;5010226;28;21007;-70
2021/04/20 02:37:35;;;;;;;21.17;14.93;;;7.60;99.90;;;;;;5014633;28;20455;-71
2021/04/20 02:40:05;;;;;;;22.17;15.30;;;7.60;99.90;;;;;;5016340;28;20463;-73
2021/04/20 02:42:33;;;;;;;22.27;15.03;;;7.50;99.90;;;;;;5009068;28;20453;-72
2021/04/20 02:45:00;;;;;;;17.63;12.97;;;7.50;99.90;;;;;;5015323;28;20509;-70
2021/04/20 02:47:28;;;;;;;22.33;15.00;;;7.50;99.90;;;;;;5012643;28;20447;-70
2021/04/20 02:49:55;;;;;;;22.23;14.87;;;7.50;99.90;;;;;;5013404;28;20450;-70
2021/04/20 02:52:23;;;;;;;17.83;13.53;;;7.50;99.90;;;;;;5007333;28;20783;-70
2021/04/20 02:54:49;;;;;;;17.50;13.70;;;7.50;99.90;;;;;;5012497;28;20470;-69
2021/04/20 02:57:16;;;;;;;23.17;14.30;;;7.40;99.90;;;;;;5012576;28;20462;-69
2021/04/20 02:59:43;;;;;;;18.97;13.77;;;7.40;99.90;;;;;;5012050;28;20200;-69
2021/04/20 03:02:10;;;;;;;19.40;15.20;;;7.40;99.90;;;;;;5009632;28;20888;-69
2021/04/20 03:04:38;;;;;;;20.10;14.90;;;7.40;99.90;;;;;;5013572;28;20474;-72
2021/04/20 03:07:04;;;;;;;19.27;14.77;;;7.40;99.90;;;;;;5014118;28;21649;-70
2021/04/20 03:09:31;;;;;;;21.70;15.33;;;7.40;99.90;;;;;;5013133;28;20525;-69
2021/04/20 03:11:58;;;;;;;23.60;16.50;;;7.30;99.90;;;;;;5014170;28;20434;-69
2021/04/20 03:14:26;;;;;;;24.80;14.63;;;7.30;99.90;;;;;;5011137;28;20529;-70
2021/04/20 03:16:52;;;;;;;21.90;14.40;;;7.30;99.90;;;;;;5012342;28;20477;-70
2021/04/20 03:19:17;;;;;;;22.90;15.40;;;7.30;99.90;;;;;;5011584;28;20890;-69
2021/04/20 03:21:44;;;;;;;21.67;15.20;;;7.30;99.90;;;;;;5014598;28;20208;-69
2021/04/20 03:24:41;;;;;;;20.43;14.77;;;7.20;99.90;;;;;;5011097;28;20228;-72
2021/04/20 03:27:07;;;;;;;20.10;14.97;;;7.20;99.90;;;;;;4997554;28;20459;-69
2021/04/20 03:29:33;;;;;;;19.50;14.10;;;7.20;99.90;;;;;;5012208;28;20486;-71
2021/04/20 03:31:58;;;;;;;22.67;14.43;;;7.20;99.90;;;;;;5009618;28;20434;-70
2021/04/20 03:34:30;;;;;;;22.87;15.20;;;7.20;99.90;;;;;;5012749;28;20998;-71
2021/04/20 03:37:04;;;;;;;18.83;14.70;;;7.10;99.90;;;;;;5013573;28;21346;-70
2021/04/20 03:39:35;;;;;;;20.50;16.17;;;7.10;99.90;;;;;;5016636;28;20440;-69
2021/04/20 03:42:08;;;;;;;25.13;16.50;;;7.10;99.90;;;;;;5013093;28;20449;-72
2021/04/20 03:44:55;;;;;;;17.50;12.97;;;7.10;99.90;;;;;;5016826;28;21031;-70
2021/04/20 03:47:24;;;;;;;18.03;13.77;;;7.10;99.90;;;;;;5015163;28;20521;-71
2021/04/20 03:49:52;;;;;;;21.90;14.10;;;7.10;99.90;;;;;;5012309;28;20439;-71
2021/04/20 03:52:27;;;;;;;21.07;15.07;;;7.10;99.90;;;;;;5016638;28;20482;-71
2021/04/20 03:54:55;;;;;;;22.87;14.10;;;7.10;99.90;;;;;;5013093;28;20968;-71
2021/04/20 03:57:22;;;;;;;20.97;13.90;;;7.10;99.90;;;;;;5013013;28;20872;-71
2021/04/20 03:59:49;;;;;;;20.33;14.00;;;7.10;99.90;;;;;;5009447;28;20525;-70
2021/04/20 04:02:16;;;;;;;20.00;14.30;;;7.00;99.90;;;;;;5016604;28;20446;-70
2021/04/20 04:04:44;;;;;;;22.80;14.07;;;7.00;99.90;;;;;;5013980;28;20463;-70
2021/04/20 04:07:14;;;;;;;21.60;14.33;;;7.00;99.90;;;;;;5016517;28;21043;-68
2021/04/20 04:09:41;;;;;;;18.37;14.33;;;7.00;99.90;;;;;;5016828;28;20471;-71
2021/04/20 04:12:09;;;;;;;23.97;15.60;;;7.00;99.90;;;;;;5014034;28;20432;-71
2021/04/20 04:14:36;;;;;;;21.97;14.17;;;7.00;99.90;;;;;;5014318;28;20435;-71
2021/04/20 04:17:07;;;;;;;21.03;15.00;;;6.90;99.90;;;;;;5017097;28;20870;-72
2021/04/20 04:19:47;;;;;;;23.60;15.13;;;6.80;99.90;;;;;;5016039;28;20996;-70
2021/04/20 04:22:17;;;;;;;23.77;16.00;;;6.80;99.90;;;;;;5016078;28;20439;-70
2021/04/20 04:24:53;;;;;;;18.63;13.10;;;6.70;99.90;;;;;;5015569;28;20538;-70
2021/04/20 04:27:22;;;;;;;25.23;16.03;;;6.70;99.90;;;;;;5015430;28;20456;-71
2021/04/20 04:29:48;;;;;;;25.60;15.33;;;6.70;99.90;;;;;;5013275;28;20670;-69
2021/04/20 04:32:20;;;;;;;21.30;13.30;;;6.60;99.90;;;;;;5014746;28;21104;-71
2021/04/20 04:34:49;;;;;;;20.57;14.60;;;6.60;99.90;;;;;;5017589;28;20957;-70
2021/04/20 04:37:15;;;;;;;20.77;15.70;;;6.60;99.90;;;;;;5011709;28;20469;-70
2021/04/20 04:39:43;;;;;;;22.13;15.63;;;6.60;99.90;;;;;;5016736;28;20440;-70
2021/04/20 04:42:09;;;;;;;24.87;15.30;;;6.60;99.90;;;;;;5014712;28;20490;-70
2021/04/20 04:44:35;;;;;;;21.33;14.83;;;6.50;99.90;;;;;;5016274;28;20494;-69
2021/04/20 04:47:01;;;;;;;21.40;14.77;;;6.60;99.90;;;;;;5013397;28;20471;-72
2021/04/20 04:49:29;;;;;;;21.00;14.30;;;6.50;99.90;;;;;;5012169;28;20428;-70
2021/04/20 04:51:56;;;;;;;22.47;15.17;;;6.50;99.90;;;;;;5015068;28;20185;-70
2021/04/20 04:54:22;;;;;;;22.90;14.60;;;6.60;99.90;;;;;;5017696;28;20802;-70
2021/04/20 04:56:49;;;;;;;21.20;15.27;;;6.60;99.90;;;;;;5020067;28;20470;-71
2021/04/20 04:59:20;;;;;;;21.10;14.20;;;6.60;99.90;;;;;;5021282;28;21047;-70
2021/04/20 05:01:46;;;;;;;23.60;15.87;;;6.60;99.90;;;;;;5015960;28;20459;-71
2021/04/20 05:04:13;;;;;;;19.23;14.00;;;6.60;99.90;;;;;;5018688;28;20478;-71
2021/04/20 05:06:44;;;;;;;22.47;15.43;;;6.60;99.90;;;;;;5018910;28;20456;-71
2021/04/20 05:09:10;;;;;;;22.10;15.93;;;6.70;99.90;;;;;;5018085;28;21138;-70
2021/04/20 05:11:43;;;;;;;23.23;16.37;;;6.70;99.90;;;;;;5019540;28;20793;-70
2021/04/20 05:14:11;;;;;;;20.33;13.63;;;6.70;99.90;;;;;;5019360;28;20459;-71
2021/04/20 05:16:39;;;;;;;20.00;13.90;;;6.70;99.90;;;;;;5017152;28;20463;-69
2021/04/20 05:19:08;;;;;;;22.20;14.90;;;6.70;99.90;;;;;;5016627;28;20941;-72
2021/04/20 05:21:34;;;;;;;23.30;15.13;;;6.70;99.90;;;;;;5018207;28;20474;-70
2021/04/20 05:24:00;;;;;;;25.07;16.03;;;6.70;99.90;;;;;;5020192;28;20842;-72
2021/04/20 05:26:30;;;;;;;21.87;15.30;;;6.70;99.90;;;;;;5017628;28;20546;-71
2021/04/20 05:29:04;;;;;;;21.77;15.37;;;6.70;99.90;;;;;;5013312;28;20240;-71
2021/04/20 05:31:30;;;;;;;23.97;14.43;;;6.80;99.90;;;;;;5012656;28;20436;-70
2021/04/20 05:34:01;;;;;;;20.20;14.20;;;6.80;99.90;;;;;;5013742;28;20431;-72
2021/04/20 05:36:27;;;;;;;19.93;15.47;;;6.90;99.90;;;;;;5015464;28;20565;-71
2021/04/20 05:38:59;;;;;;;23.10;15.87;;;6.90;99.90;;;;;;5016416;28;20441;-72
2021/04/20 05:41:35;;;;;;;21.73;15.17;;;7.00;99.90;;;;;;5018605;28;20443;-70
2021/04/20 05:44:03;;;;;;;18.77;14.60;;;7.00;99.90;;;;;;5010901;28;20457;-70
2021/04/20 05:46:29;;;;;;;21.87;15.57;;;7.10;99.90;;;;;;5013574;28;20519;-72
2021/04/20 05:48:56;;;;;;;21.83;14.93;;;7.20;99.90;;;;;;5015397;28;20965;-71
2021/04/20 05:51:24;;;;;;;24.13;16.50;;;7.20;99.90;;;;;;5011638;28;20442;-71
2021/04/20 05:53:52;;;;;;;19.60;14.20;;;7.30;99.90;;;;;;4997920;28;20530;-70
2021/04/20 05:56:19;;;;;;;20.80;15.17;;;7.30;99.90;;;;;;5013968;28;20526;-71
2021/04/20 05:58:45;;;;;;;22.10;14.50;;;7.40;99.90;;;;;;5016527;28;20435;-70
2021/04/20 06:01:11;;;;;;;23.17;16.50;;;7.40;99.90;;;;;;5013359;28;20505;-71
2021/04/20 06:03:42;;;;;;;22.07;16.10;;;7.50;99.90;;;;;;5012937;28;20436;-72
2021/04/20 06:06:11;;;;;;;21.30;14.83;;;7.60;99.90;;;;;;5011232;28;20455;-71
2021/04/20 06:08:39;;;;;;;22.97;16.00;;;7.60;99.90;;;;;;5006316;28;20949;-69
2021/04/20 06:11:06;;;;;;;23.00;13.23;;;7.70;99.90;;;;;;5007771;28;20436;-70
2021/04/20 06:13:32;;;;;;;26.77;15.70;;;7.80;99.90;;;;;;5010555;28;20436;-71
2021/04/20 06:16:00;;;;;;;22.93;16.10;;;7.80;99.90;;;;;;5013522;28;20508;-70
2021/04/20 06:18:26;;;;;;;20.87;15.77;;;7.80;99.90;;;;;;5009366;28;20441;-70
2021/04/20 06:20:55;;;;;;;20.93;15.00;;;7.90;99.90;;;;;;5015024;28;20534;-72
2021/04/20 06:23:21;;;;;;;21.83;16.00;;;8.00;99.90;;;;;;5010920;28;20939;-71
2021/04/20 06:25:47;;;;;;;22.50;15.40;;;8.10;99.90;;;;;;5014724;28;20462;-70
2021/04/20 06:28:14;;;;;;;22.67;15.83;;;8.20;99.90;;;;;;5011454;28;20436;-71
2021/04/20 06:30:41;;;;;;;27.40;16.93;;;8.20;99.90;;;;;;5013546;28;20432;-71
2021/04/20 06:33:10;;;;;;;25.30;16.87;;;8.30;99.90;;;;;;5010171;28;20443;-72
2021/04/20 06:35:38;;;;;;;24.07;17.80;;;8.40;99.90;;;;;;5014110;28;20439;-73
2021/04/20 06:38:05;;;;;;;21.60;16.00;;;8.50;99.90;;;;;;5014331;28;20467;-72
2021/04/20 06:40:41;;;;;;;25.17;16.47;;;8.60;99.90;;;;;;5011988;28;20526;-71
2021/04/20 06:43:14;;;;;;;23.67;16.37;;;8.70;99.90;;;;;;5012390;28;20423;-71
2021/04/20 06:45:49;;;;;;;22.33;16.07;;;8.70;99.90;;;;;;5013998;28;20464;-70
2021/04/20 06:48:45;;;;;;;21.30;15.10;;;8.80;99.90;;;;;;5008195;28;20450;-70
2021/04/20 06:51:37;;;;;;;24.40;15.60;;;8.90;99.90;;;;;;5010017;28;20901;-70
2021/04/20 06:54:27;;;;;;;21.93;15.67;;;9.00;99.90;;;;;;5011918;28;20519;-72
2021/04/20 06:57:16;;;;;;;30.07;16.93;;;9.00;99.90;;;;;;5013127;28;20485;-69
2021/04/20 06:59:54;;;;;;;24.53;15.70;;;9.00;99.90;;;;;;5013688;28;20435;-70
2021/04/20 07:02:46;;;;;;;29.03;16.80;;;9.20;99.90;;;;;;5012465;28;20527;-69
2021/04/20 07:05:14;;;;;;;27.97;16.10;;;9.30;99.90;;;;;;5008019;28;20475;-71
2021/04/20 07:08:15;;;;;;;23.67;15.20;;;9.50;99.90;;;;;;5011643;28;20470;-72
2021/04/20 07:10:42;;;;;;;25.40;16.67;;;9.60;99.90;;;;;;5018360;28;20517;-70
2021/04/20 07:13:13;;;;;;;20.70;16.03;;;9.70;99.90;;;;;;5015063;28;20523;-71
2021/04/20 07:15:47;;;;;;;24.70;14.37;;;9.80;99.90;;;;;;5010500;28;20486;-71
2021/04/20 07:18:45;;;;;;;22.03;14.97;;;9.90;99.90;;;;;;5009797;28;20427;-70
2021/04/20 07:21:21;;;;;;;21.83;16.43;;;10.00;99.90;;;;;;5013979;28;20431;-72
2021/04/20 07:24:12;;;;;;;21.00;15.17;;;10.20;99.90;;;;;;5012370;28;22383;-72
2021/04/20 07:27:03;;;;;;;25.97;18.50;;;10.30;99.90;;;;;;5013727;28;21016;-70
2021/04/20 07:30:14;;;;;;;26.43;17.27;;;10.50;99.90;;;;;;5017339;28;20469;-70
2021/04/20 07:33:11;;;;;;;29.77;18.27;;;10.50;99.90;;;;;;5014964;28;20443;-70
2021/04/20 07:35:47;;;;;;;23.87;17.20;;;10.60;99.90;;;;;;5019228;28;20573;-71
2021/04/20 07:38:55;;;;;;;25.10;18.30;;;10.80;99.90;;;;;;5017903;28;20441;-70
2021/04/20 07:41:48;;;;;;;31.00;18.97;;;10.80;99.90;;;;;;5012870;28;20515;-70
2021/04/20 07:44:31;;;;;;;29.90;20.80;;;11.00;99.90;;;;;;5013998;28;20559;-71
2021/04/20 07:46:59;;;;;;;28.60;19.20;;;11.00;99.90;;;;;;5016946;28;20450;-70
2021/04/20 07:49:52;;;;;;;28.67;19.77;;;11.10;99.90;;;;;;5011159;28;20803;-70
2021/04/20 07:52:43;;;;;;;32.23;19.07;;;11.20;99.90;;;;;;5011202;28;20418;-71
2021/04/20 07:55:16;;;;;;;24.57;17.07;;;11.30;99.90;;;;;;5014148;28;20431;-70
2021/04/20 07:57:47;;;;;;;28.87;18.43;;;11.50;99.90;;;;;;5004414;28;20590;-70
2021/04/20 08:00:27;;;;;;;27.60;19.30;;;11.60;99.90;;;;;;5006891;28;21244;-70
2021/04/20 08:03:03;;;;;;;29.50;19.20;;;11.70;99.90;;;;;;5007124;28;20554;-70
2021/04/20 08:05:36;;;;;;;25.40;19.20;;;11.90;99.90;;;;;;5007346;28;20887;-70
2021/04/20 08:08:35;;;;;;;26.73;19.27;;;12.00;99.90;;;;;;5004840;28;20436;-71
2021/04/20 08:11:13;;;;;;;26.20;19.57;;;12.10;99.90;;;;;;5009930;28;20500;-70
2021/04/20 08:13:56;;;;;;;30.70;18.87;;;12.30;99.90;;;;;;5006750;28;20440;-69
2021/04/20 08:16:27;;;;;;;30.10;20.60;;;12.40;99.90;;;;;;5005166;28;20486;-70
2021/04/20 08:19:00;;;;;;;32.63;20.10;;;12.50;99.90;;;;;;5005646;28;20682;-70
2021/04/20 08:21:29;;;;;;;26.10;20.20;;;12.60;99.90;;;;;;5005584;28;20514;-70
2021/04/20 08:23:56;;;;;;;31.30;20.50;;;12.70;99.90;;;;;;5006812;28;20436;-70
2021/04/20 08:26:29;;;;;;;30.50;19.90;;;12.90;99.90;;;;;;5009116;28;20522;-69
2021/04/20 08:29:05;;;;;;;27.67;21.23;;;13.00;99.90;;;;;;5008402;28;20439;-68
2021/04/20 08:31:39;;;;;;;33.03;22.20;;;13.10;99.90;;;;;;5006831;28;20486;-71
2021/04/20 08:34:35;;;;;;;34.03;21.63;;;13.20;99.90;;;;;;5008606;28;20542;-71
2021/04/20 08:37:00;;;;;;;33.67;22.40;;;13.40;99.90;;;;;;5009251;28;20451;-71
2021/04/20 08:40:03;;;;;;;27.83;20.17;;;13.60;99.90;;;;;;5009340;28;20458;-69
2021/04/20 08:42:41;;;;;;;31.67;21.50;;;13.80;99.90;;;;;;5009150;28;20223;-70
2021/04/20 08:45:17;;;;;;;31.37;21.20;;;13.90;99.90;;;;;;5009136;28;20474;-69
2021/04/20 08:48:10;;;;;;;36.63;22.20;;;14.10;99.90;;;;;;5009370;28;21040;-71
2021/04/20 08:50:50;;;;;;;32.60;21.70;;;14.10;99.90;;;;;;5009598;28;20483;-69
2021/04/20 08:53:31;;;;;;;30.03;21.43;;;14.30;99.90;;;;;;5013639;28;21063;-71
2021/04/20 08:56:22;;;;;;;33.20;20.63;;;14.50;99.90;;;;;;5009987;28;20878;-71
2021/04/20 08:59:21;;;;;;;27.27;21.07;;;14.70;99.90;;;;;;5021188;28;21179;-72
2021/04/20 09:02:22;;;;;;;27.50;20.30;;;14.90;99.90;;;;;;5014433;28;20466;-71
2021/04/20 09:05:10;;;;;;;25.30;19.10;;;15.00;99.90;;;;;;5004603;28;20981;-71
2021/04/20 09:08:04;;;;;;;27.00;19.70;;;15.10;99.90;;;;;;5010802;28;20459;-71
2021/04/20 09:10:54;;;;;;;25.87;19.67;;;15.30;99.90;;;;;;5006789;28;20509;-69
2021/04/20 09:13:21;;;;;;;28.17;20.60;;;15.50;99.90;;;;;;5011741;28;21205;-71
2021/04/20 09:16:04;;;;;;;29.13;21.20;;;15.60;99.90;;;;;;5011572;28;20439;-70
2021/04/20 09:18:38;;;;;;;28.43;18.20;;;15.80;99.90;;;;;;5015320;28;20454;-70
2021/04/20 09:21:14;;;;;;;25.30;19.60;;;16.40;99.90;;;;;;5014220;28;20449;-70
2021/04/20 09:23:51;;;;;;;24.30;19.10;;;17.00;99.90;;;;;;5012314;28;20436;-70
2021/04/20 09:26:39;;;;;;;24.47;19.70;;;17.80;99.90;;;;;;5013025;28;20545;-71
2021/04/20 09:29:32;;;;;;;24.60;19.47;;;18.70;99.90;;;;;;5015232;28;20975;-69
2021/04/20 09:32:06;;;;;;;25.40;20.30;;;19.10;99.90;;;;;;5013112;28;20439;-71
2021/04/20 09:34:36;;;;;;;23.53;19.83;;;20.10;99.90;;;;;;5010759;28;20542;-70
2021/04/20 09:37:05;;;;;;;25.07;19.83;;;21.10;99.90;;;;;;5012132;28;20519;-72
2021/04/20 09:39:36;;;;;;;23.27;19.73;;;22.20;99.90;;;;;;5006622;28;20502;-70
2021/04/20 09:42:04;;;;;;;25.60;20.30;;;23.40;96.50;;;;;;5014231;28;20427;-70
2021/04/20 09:44:46;;;;;;;22.80;20.23;;;24.40;92.60;;;;;;5008378;28;20912;-70
2021/04/20 09:47:36;;;;;;;25.27;20.80;;;25.50;84.00;;;;;;5010643;28;20454;-71
2021/04/20 09:50:23;;;;;;;19.90;17.90;;;26.70;75.10;;;;;;5009212;28;20436;-71
2021/04/20 09:53:07;;;;;;;21.30;17.50;;;27.20;66.10;;;;;;5013395;28;20447;-74
2021/04/20 09:55:44;;;;;;;18.83;16.37;;;27.50;61.10;;;;;;5006228;28;20997;-73
2021/04/20 09:58:12;;;;;;;18.00;15.97;;;27.50;57.00;;;;;;5007926;28;20523;-70
2021/04/20 10:00:42;;;;;;;17.73;15.73;;;27.40;56.30;;;;;;5011181;28;20442;-72
2021/04/20 10:03:32;;;;;;;21.83;18.37;;;27.10;56.00;;;;;;5012581;28;20529;-72
2021/04/20 10:06:05;;;;;;;21.57;19.27;;;26.20;55.20;;;;;;5010418;28;20990;-71
2021/04/20 10:09:01;;;;;;;23.50;19.40;;;24.60;57.90;;;;;;5010907;28;20428;-70
2021/04/20 10:11:49;;;;;;;21.63;19.43;;;23.70;60.00;;;;;;5005087;28;20714;-73
2021/04/20 10:14:24;;;;;;;20.97;18.80;;;23.70;60.30;;;;;;5008001;28;20968;-72
2021/04/20 10:17:19;;;;;;;18.90;16.90;;;23.90;59.40;;;;;;5004391;28;20514;-71
2021/04/20 10:20:13;;;;;;;17.00;14.90;;;23.60;58.50;;;;;;4999626;28;20963;-71
2021/04/20 10:23:02;;;;;;;15.63;14.03;;;23.70;59.10;;;;;;5009487;28;21124;-72
2021/04/20 10:25:49;;;;;;;17.30;15.57;;;24.30;57.40;;;;;;5007343;28;20464;-72
2021/04/20 10:28:18;;;;;;;15.97;14.37;;;24.60;56.90;;;;;;5007058;28;20428;-71
2021/04/20 10:30:46;;;;;;;17.10;15.30;;;25.00;56.10;;;;;;5009784;28;20486;-70
2021/04/20 10:33:18;;;;;;;18.30;14.97;;;24.10;55.40;;;;;;5002880;28;20433;-71
2021/04/20 10:35:46;;;;;;;15.77;14.17;;;23.70;56.30;;;;;;5007343;28;20456;-72
2021/04/20 10:38:17;;;;;;;17.67;13.70;;;23.20;55.80;;;;;;5003677;28;20440;-71
2021/04/20 10:40:45;;;;;;;17.80;13.57;;;22.70;57.10;;;;;;5005341;28;20874;-71
2021/04/20 10:43:17;;;;;;;15.20;13.63;;;22.40;57.30;;;;;;5004739;28;20446;-72
2021/04/20 10:45:44;;;;;;;18.20;13.80;;;22.40;58.50;;;;;;5009769;28;20578;-70
2021/04/20 10:48:15;;;;;;;16.10;13.80;;;22.20;57.40;;;;;;5006089;28;20973;-70
2021/04/20 10:50:47;;;;;;;14.83;12.70;;;22.30;58.60;;;;;;5007169;28;20479;-71
2021/04/20 10:53:18;;;;;;;14.20;12.63;;;22.80;57.30;;;;;;5007055;28;20875;-71
2021/04/20 10:56:08;;;;;;;15.23;12.40;;;23.70;56.40;;;;;;5011829;28;21169;-72
2021/04/20 10:58:37;;;;;;;15.67;12.87;;;25.10;55.00;;;;;;5009252;28;20532;-70
2021/04/20 11:01:03;;;;;;;14.60;12.60;;;26.80;53.20;;;;;;5007337;28;20454;-72
2021/04/20 11:03:34;;;;;;;13.30;12.00;;;28.10;50.90;;;;;;5006255;28;20943;-70
2021/04/20 11:06:02;;;;;;;13.73;12.33;;;29.30;49.10;;;;;;5012133;28;20713;-70
2021/04/20 11:08:48;;;;;;;14.63;13.10;;;30.30;47.20;;;;;;5005908;28;20439;-71
2021/04/20 11:11:21;;;;;;;13.60;11.80;;;31.00;45.50;;;;;;5007615;28;20489;-73
2021/04/20 11:13:48;;;;;;;12.57;11.37;;;32.10;44.00;;;;;;5015533;28;20466;-70
2021/04/20 11:16:33;;;;;;;16.33;11.67;;;33.60;42.70;;;;;;5010474;28;20971;-70
2021/04/20 11:19:06;;;;;;;15.40;13.83;;;35.00;38.70;;;;;;5015349;28;20554;-71
2021/04/20 11:21:36;;;;;;;15.50;12.07;;;36.20;37.50;;;;;;5014114;28;20425;-71
2021/04/20 11:24:18;;;;;;;13.40;12.17;;;35.80;35.90;;;;;;5013711;28;20505;-73
2021/04/20 11:26:53;;;;;;;13.00;11.70;;;36.70;34.00;;;;;;5010960;28;20460;-72
2021/04/20 11:29:28;;;;;;;11.97;11.03;;;37.30;33.80;;;;;;5017761;28;20402;-71
2021/04/20 11:31:55;;;;;;;13.50;12.13;;;37.90;32.00;;;;;;5013536;28;20398;-72
2021/04/20 11:34:25;;;;;;;12.20;11.10;;;35.60;31.60;;;;;;5011953;28;20503;-71
2021/04/20 11:36:58;;;;;;;13.63;12.33;;;34.40;34.00;;;;;;5010417;28;20553;-72
2021/04/20 11:39:30;;;;;;;13.10;11.90;;;34.60;33.30;;;;;;5016598;28;20438;-73
2021/04/20 11:41:59;;;;;;;12.93;11.73;;;32.90;33.30;;;;;;5017390;28;20423;-71
2021/04/20 11:44:32;;;;;;;12.30;11.17;;;31.40;35.90;;;;;;5009432;28;20463;-73
2021/04/20 11:46:59;;;;;;;12.33;11.20;;;31.20;36.50;;;;;;5020995;28;20457;-70
2021/04/20 11:49:28;;;;;;;12.83;11.73;;;29.50;36.90;;;;;;5017628;28;20431;-72
2021/04/20 11:51:59;;;;;;;12.63;11.40;;;28.10;38.90;;;;;;5015636;28;20455;-71
2021/04/20 11:54:28;;;;;;;13.40;12.10;;;29.10;40.60;;;;;;5011727;28;20461;-73
2021/04/20 11:56:59;;;;;;;12.67;11.47;;;31.20;38.30;;;;;;5005900;28;20518;-68
2021/04/20 11:59:26;;;;;;;14.87;12.03;;;31.20;36.60;;;;;;5003937;28;20432;-70
2021/04/20 12:01:53;;;;;;;12.23;11.07;;;30.90;36.90;;;;;;5011197;28;20894;-68
2021/04/20 12:04:29;;;;;;;20.50;13.30;;;29.30;37.70;;;;;;5012689;28;20509;-68
2021/04/20 12:06:56;;;;;;;17.47;15.50;;;27.80;39.50;;;;;;5009817;28;20483;-68
2021/04/20 12:09:28;;;;;;;14.10;12.70;;;26.50;41.30;;;;;;5016692;28;20478;-69
2021/04/20 12:11:54;;;;;;;15.73;14.10;;;25.30;41.90;;;;;;5011641;28;20438;-69
2021/04/20 12:14:24;;;;;;;13.87;12.10;;;24.50;43.60;;;;;;5011973;28;20526;-68
2021/04/20 12:16:51;;;;;;;13.30;12.00;;;24.00;44.20;;;;;;5013632;28;20443;-69
2021/04/20 12:19:20;;;;;;;12.10;11.00;;;23.70;45.30;;;;;;5008571;28;20930;-74
2021/04/20 12:21:48;;;;;;;12.20;11.00;;;25.80;44.90;;;;;;5013339;28;20435;-71
2021/04/20 12:24:21;;;;;;;12.77;11.57;;;28.10;41.90;;;;;;5013331;28;20791;-72
2021/04/20 12:26:55;;;;;;;10.83;9.80;;;28.20;40.70;;;;;;5010602;28;20446;-71
2021/04/20 12:29:24;;;;;;;12.60;11.40;;;28.00;40.00;;;;;;5011740;28;21644;-71
2021/04/20 12:31:51;;;;;;;13.80;12.40;;;27.00;40.30;;;;;;5017613;28;20420;-70
2021/04/20 12:34:28;;;;;;;11.57;10.47;;;26.10;41.60;;;;;;5014196;28;20472;-70
2021/04/20 12:37:00;;;;;;;11.73;10.63;;;25.50;42.60;;;;;;5015525;28;20468;-68
2021/04/20 12:39:32;;;;;;;12.83;10.00;;;24.80;43.50;;;;;;5019495;28;20431;-68
2021/04/20 12:42:01;;;;;;;11.37;10.27;;;24.40;44.10;;;;;;5019438;28;20499;-66
2021/04/20 12:44:34;;;;;;;11.73;10.63;;;23.70;44.70;;;;;;5014980;28;20548;-66
2021/04/20 12:47:01;;;;;;;11.20;10.03;;;23.20;45.30;;;;;;5014650;28;20455;-67
2021/04/20 12:49:28;;;;;;;12.20;10.90;;;22.80;45.80;;;;;;5013617;28;20432;-67
2021/04/20 12:51:56;;;;;;;12.43;11.13;;;22.40;46.40;;;;;;5010056;28;21003;-67
2021/04/20 12:54:23;;;;;;;13.27;11.70;;;22.10;47.10;;;;;;5014451;28;20513;-67
2021/04/20 12:56:58;;;;;;;12.30;11.00;;;22.10;47.50;;;;;;5014592;28;20459;-65
2021/04/20 12:59:25;;;;;;;11.63;10.53;;;22.10;47.10;;;;;;5012059;28;20929;-66